KRST/RST METAR and TAF weather

Enter ICAO airport designator
Station Type Date Time Source
KRST METAR 2021/03/07 08:54 UTC NOAA

KRST 070854Z 16012KT 10SM CLR 01/M04 A3021 RMK AO2 SLP243 T00061044 56009 $


Station Type Date Time Source
KRST Decoded METAR 2021/03/07 08:54 UTC NOAA

ROCHESTER INTERNATIONAL AIRPORT , MN, United States (KRST) 43-54N 092-30W 403M
Mar 07, 2021 - 03:54 AM EST / 2021.03.07 0854 UTC
Wind: from the SSE (160 degrees) at 14 MPH (12 KT):0
Visibility: 10 mile(s):0
Sky conditions: clear
Temperature: 33.1 F (0.6 C)
Windchill: 23 F (-5 C):1
Dew Point: 24.1 F (-4.4 C)
Relative Humidity: 69%
Pressure (altimeter): 30.21 in. Hg (1023 hPa)
Pressure tendency: 0.03 inches (0.9 hPa) lower than three hours ago
ob: KRST 070854Z 16012KT 10SM CLR 01/M04 A3021 RMK AO2 SLP243 T00061044 56009
cycle: 9

Station Type Date Time Source
KRST TAF 2021/03/07 06:22 UTC NOAA

TAF KRST 070520Z 0706/0806 15007KT P6SM SKC
FM070900 15011KT P6SM SCT250
FM071500 17019G26KT P6SM SCT250
FM080000 18012KT P6SM BKN150

Example: see airport list